Time;durP1;ratioP1;P1;durP2;ratioP2;P2;SDS_P1;SDS_P2;PMS_P1;PMS_P2;Temp;Humidity;BMP_temperature;BMP_pressure;BME280_temperature;BME280_humidity;BME280_pressure;Samples;Min_cycle;Max_cycle;Signal;HPM_P1;HPM_P2
2022/11/11 00:01:11;;;;;;;18.67;6.62;;;;;;;9.64;96.26;100321.63;1691186;84;20963;-66
2022/11/11 00:03:37;;;;;;;10.95;4.30;;;;;;;9.64;96.27;100329.44;1688427;84;21949;-66
2022/11/11 00:06:15;;;;;;;9.95;4.50;;;;;;;9.63;96.23;100336.88;1661151;82;21065;-66
2022/11/11 00:08:42;;;;;;;11.40;4.20;;;;;;;9.62;96.30;100333.84;1689104;84;21094;-66
2022/11/11 00:11:12;;;;;;;8.05;4.08;;;;;;;9.66;96.34;100344.17;1645840;84;20934;-66
2022/11/11 00:13:41;;;;;;;8.53;4.78;;;;;;;9.66;96.56;100354.60;1649338;84;21065;-66
2022/11/11 00:16:15;;;;;;;7.72;3.58;;;;;;;9.68;96.43;100360.62;1686662;84;20930;-66
2022/11/11 00:27:08;;;;;;;7.30;4.15;;;;;;;9.75;96.41;100343.88;1680182;83;21497;-66
2022/11/11 00:29:36;;;;;;;9.70;4.28;;;;;;;9.75;96.41;100346.49;1686838;83;20934;-66
2022/11/11 00:37:35;;;;;;;11.48;4.30;;;;;;;9.80;96.65;100365.42;1675690;83;21520;-66
2022/11/11 00:40:03;;;;;;;8.40;4.28;;;;;;;9.85;96.61;100366.13;1693800;83;20957;-66
2022/11/11 00:42:29;;;;;;;11.03;4.30;;;;;;;9.89;96.58;100383.39;1699969;83;20937;-66
2022/11/11 00:44:56;;;;;;;10.75;4.22;;;;;;;9.92;96.55;100374.16;1697395;83;20926;-66
2022/11/11 00:53:04;;;;;;;8.73;3.92;;;;;;;9.98;96.50;100366.11;1675179;84;21483;-66
2022/11/11 00:55:31;;;;;;;10.82;3.92;;;;;;;9.85;97.08;100353.08;1666712;84;20958;-66
2022/11/11 00:57:58;;;;;;;7.83;3.92;;;;;;;9.81;97.33;100361.92;1697663;83;21005;-66
2022/11/11 01:00:25;;;;;;;13.60;4.67;;;;;;;9.82;97.45;100353.19;1699742;83;21090;-66
2022/11/11 01:02:51;;;;;;;10.38;4.10;;;;;;;9.97;96.93;100355.28;1701042;83;20932;-66
2022/11/11 01:05:18;;;;;;;8.30;4.23;;;;;;;9.98;96.81;100340.02;1699404;83;21585;-66
2022/11/11 01:07:45;;;;;;;9.77;4.00;;;;;;;10.01;96.73;100338.61;1695414;83;20985;-66
2022/11/11 01:10:12;;;;;;;8.07;4.00;;;;;;;10.00;96.70;100334.30;1679477;83;21650;-66
2022/11/11 01:12:38;;;;;;;9.08;3.45;;;;;;;10.02;96.66;100331.16;1685465;84;21058;-66
2022/11/11 01:15:06;;;;;;;8.60;3.53;;;;;;;10.04;96.52;100317.63;1669650;84;20941;-66
2022/11/11 01:17:33;;;;;;;9.90;3.87;;;;;;;10.04;96.46;100325.45;1699392;83;21654;-66
2022/11/11 01:19:59;;;;;;;8.83;3.33;;;;;;;10.05;96.52;100314.55;1669206;84;20990;-66
2022/11/11 01:22:27;;;;;;;9.35;3.50;;;;;;;10.05;96.46;100319.34;1664892;84;21018;-66
2022/11/11 01:24:54;;;;;;;7.97;3.55;;;;;;;10.04;96.61;100324.14;1683857;83;21062;-66
2022/11/11 01:27:20;;;;;;;9.73;3.40;;;;;;;10.06;96.57;100322.34;1695751;84;21005;-66
2022/11/11 01:29:47;;;;;;;11.70;3.30;;;;;;;10.05;96.49;100319.34;1692562;83;21428;-66
2022/11/11 01:32:14;;;;;;;7.83;3.57;;;;;;;10.04;96.38;100315.02;1666395;84;20990;-66
2022/11/11 01:34:40;;;;;;;7.33;3.40;;;;;;;10.01;96.48;100305.99;1663363;84;21521;-66
2022/11/11 01:37:07;;;;;;;11.55;4.42;;;;;;;9.96;96.48;100301.39;1658120;84;21133;-66
2022/11/11 01:39:33;;;;;;;11.97;3.83;;;;;;;9.95;96.55;100299.70;1664282;85;20942;-66
2022/11/11 01:42:00;;;;;;;7.97;3.33;;;;;;;9.97;96.51;100298.31;1672285;84;21002;-66
2022/11/11 01:44:43;;;;;;;15.28;3.90;;;;;;;10.00;96.46;100303.00;1682538;83;21193;-66
2022/11/11 01:47:10;;;;;;;10.15;3.83;;;;;;;10.02;96.35;100308.98;1692012;84;21488;-66
2022/11/11 01:49:50;;;;;;;9.68;3.50;;;;;;;10.02;96.51;100314.20;1689398;84;20969;-66
2022/11/11 01:52:33;;;;;;;10.03;3.55;;;;;;;10.08;96.39;100319.23;1676932;83;20982;-66
2022/11/11 01:55:10;;;;;;;9.30;3.05;;;;;;;10.11;96.33;100328.71;1690858;83;20970;-66
2022/11/11 01:57:41;;;;;;;8.30;3.23;;;;;;;10.15;96.35;100332.90;1677295;84;20959;-66
2022/11/11 02:00:13;;;;;;;10.85;3.10;;;;;;;10.20;96.26;100335.36;1666239;84;20951;-66
2022/11/11 02:02:54;;;;;;;8.50;3.08;;;;;;;10.20;96.31;100340.58;1662098;84;22038;-66
2022/11/11 02:05:41;;;;;;;8.60;3.27;;;;;;;10.25;96.17;100349.06;1665162;84;20915;-66
2022/11/11 02:08:13;;;;;;;9.00;3.58;;;;;;;10.28;96.13;100354.23;1669663;84;20987;-66
2022/11/11 02:10:44;;;;;;;8.35;2.90;;;;;;;10.33;96.13;100369.25;1680219;84;20986;-66
2022/11/11 02:16:00;;;;;;;8.43;3.60;;;;;;;10.37;96.04;100363.03;1657493;84;21877;-66
2022/11/11 02:18:28;;;;;;;9.68;2.90;;;;;;;10.39;96.02;100367.75;1665585;84;20944;-66
2022/11/11 02:20:54;;;;;;;9.33;3.83;;;;;;;10.38;95.94;100368.64;1642672;84;21051;-66
2022/11/11 02:23:38;;;;;;;6.60;2.75;;;;;;;10.38;95.93;100369.95;1665674;84;21000;-66
2022/11/11 02:26:08;;;;;;;8.50;3.52;;;;;;;10.37;95.95;100371.32;1667349;84;20954;-66
2022/11/11 02:28:36;;;;;;;8.45;3.47;;;;;;;10.35;95.90;100371.82;1667034;84;21894;-66
2022/11/11 02:31:03;;;;;;;8.68;4.00;;;;;;;10.34;95.94;100370.13;1675576;84;20975;-66
2022/11/11 02:33:30;;;;;;;8.80;3.00;;;;;;;10.31;95.91;100372.39;1669244;84;21078;-66
2022/11/11 02:35:59;;;;;;;7.50;2.83;;;;;;;10.29;95.92;100363.76;1665623;84;20932;-66
2022/11/11 02:38:27;;;;;;;10.78;3.30;;;;;;;10.27;95.94;100368.17;1653103;84;21548;-66
2022/11/11 02:43:38;;;;;;;8.40;3.25;;;;;;;10.24;95.95;100372.17;1670391;84;21511;-66
2022/11/11 02:46:06;;;;;;;6.03;2.80;;;;;;;10.22;95.95;100376.58;1675117;84;21049;-66
2022/11/11 02:48:33;;;;;;;10.03;3.00;;;;;;;10.24;95.95;100366.95;1676769;84;20891;-66
2022/11/11 02:51:00;;;;;;;7.03;2.90;;;;;;;10.22;95.95;100367.45;1673172;84;20988;-66
2022/11/11 02:53:27;;;;;;;8.10;3.07;;;;;;;10.23;95.94;100366.56;1676981;84;21111;-66
2022/11/11 02:55:53;;;;;;;7.07;2.57;;;;;;;10.21;96.08;100363.14;1683714;84;20966;-66
2022/11/11 02:58:20;;;;;;;10.17;3.33;;;;;;;10.21;96.03;100369.67;1681634;84;20954;-66
2022/11/11 03:00:47;;;;;;;11.03;4.00;;;;;;;10.24;96.12;100374.78;1693826;83;20928;-66
2022/11/11 03:03:13;;;;;;;5.57;2.77;;;;;;;10.25;96.15;100371.25;1674993;83;20936;-66
2022/11/11 03:05:40;;;;;;;6.60;2.80;;;;;;;10.25;96.19;100375.16;1694177;83;21050;-66
2022/11/11 03:08:06;;;;;;;19.93;4.30;;;;;;;10.28;96.20;100380.34;1697876;83;20928;-66
2022/11/11 03:10:33;;;;;;;7.43;2.70;;;;;;;10.24;96.44;100379.53;1697747;83;20945;-66
2022/11/11 03:13:00;;;;;;;7.42;2.70;;;;;;;10.23;96.72;100379.61;1679599;83;20891;-66
2022/11/11 03:15:27;;;;;;;8.93;2.87;;;;;;;10.11;97.12;100390.45;1690216;82;20978;-66
2022/11/11 03:17:53;;;;;;;9.37;3.10;;;;;;;10.15;96.98;100379.02;1684386;83;21065;-66
2022/11/11 03:23:08;;;;;;;6.17;2.75;;;;;;;10.09;97.23;100360.06;1670928;84;20998;-66
2022/11/11 03:25:46;;;;;;;7.95;2.95;;;;;;;10.08;97.36;100358.80;1671371;84;21149;-66
2022/11/11 03:28:19;;;;;;;12.07;3.08;;;;;;;10.09;97.46;100357.45;1663183;84;21486;-66
2022/11/11 03:30:48;;;;;;;8.53;2.40;;;;;;;10.11;97.29;100356.53;1664712;84;21879;-66
2022/11/11 03:33:17;;;;;;;6.05;2.83;;;;;;;10.21;97.00;100353.55;1651901;85;21018;-66
2022/11/11 03:35:48;;;;;;;7.95;2.47;;;;;;;10.25;96.96;100349.94;1694246;82;20914;-66
2022/11/11 03:38:15;;;;;;;8.75;2.87;;;;;;;10.25;96.96;100346.45;1696203;84;20978;-66
2022/11/11 03:40:46;;;;;;;11.60;2.80;;;;;;;10.22;97.23;100341.34;1690497;83;21037;-66
2022/11/11 03:43:15;;;;;;;7.72;2.30;;;;;;;10.32;97.13;100345.37;1698963;84;21996;-66
2022/11/11 03:45:43;;;;;;;12.10;2.92;;;;;;;10.31;97.12;100346.30;1678579;84;21524;-66
2022/11/11 03:48:11;;;;;;;7.80;3.08;;;;;;;10.32;97.08;100351.91;1689369;84;20994;-66
2022/11/11 03:50:38;;;;;;;7.58;2.37;;;;;;;10.30;97.12;100349.79;1696129;83;20997;-66
2022/11/11 03:53:05;;;;;;;8.78;2.50;;;;;;;10.41;96.80;100347.64;1668309;84;21520;-66
2022/11/11 03:55:32;;;;;;;5.03;2.45;;;;;;;10.36;97.07;100365.22;1677448;83;21054;-66
2022/11/11 03:57:58;;;;;;;6.53;2.42;;;;;;;10.39;97.00;100365.14;1696154;84;20961;-66
2022/11/11 04:00:28;;;;;;;8.75;3.20;;;;;;;10.37;97.11;100364.34;1671802;84;20965;-66
2022/11/11 04:11:37;;;;;;;7.50;2.27;;;;;;;10.56;96.41;100340.14;1686444;84;21026;-66
2022/11/11 04:16:55;;;;;;;7.15;2.50;;;;;;;10.55;96.53;100333.23;1689809;82;21401;-66
2022/11/11 04:22:07;;;;;;;6.78;2.47;;;;;;;10.46;96.95;100331.36;1685016;84;21070;-66
2022/11/11 04:27:19;;;;;;;7.17;2.20;;;;;;;10.45;97.00;100325.75;1689689;83;21978;-67
2022/11/11 04:29:46;;;;;;;8.83;2.30;;;;;;;10.45;97.04;100317.92;1700191;83;20951;-66
2022/11/11 04:32:37;;;;;;;6.28;2.20;;;;;;;10.41;96.93;100311.09;1659355;84;20920;-65
2022/11/11 04:35:11;;;;;;;5.25;2.40;;;;;;;10.39;97.02;100314.23;1670624;84;21099;-66
2022/11/11 04:37:45;;;;;;;6.75;2.30;;;;;;;10.41;96.87;100308.48;1690995;84;20941;-66
2022/11/11 04:42:57;;;;;;;5.75;2.92;;;;;;;10.41;96.88;100308.48;1669818;83;21003;-65
2022/11/11 04:45:27;;;;;;;5.37;2.20;;;;;;;10.42;96.63;100310.20;1671151;84;20947;-65
2022/11/11 04:48:01;;;;;;;7.28;2.47;;;;;;;10.40;96.57;100308.09;1689907;84;21507;-65
2022/11/11 04:50:35;;;;;;;4.65;1.90;;;;;;;10.43;96.47;100309.28;1695549;84;20906;-66
2022/11/11 04:53:04;;;;;;;5.37;1.80;;;;;;;10.47;96.34;100300.45;1683942;84;20922;-65
2022/11/11 04:58:18;;;;;;;6.45;1.92;;;;;;;10.43;96.34;100293.63;1669691;84;20954;-65
2022/11/11 05:00:45;;;;;;;5.60;2.35;;;;;;;10.42;96.41;100297.16;1667987;84;21093;-65
2022/11/11 05:03:17;;;;;;;8.40;2.30;;;;;;;10.41;96.47;100298.04;1678924;84;21076;-65
2022/11/11 05:11:24;;;;;;;7.08;1.85;;;;;;;10.46;96.72;100304.41;1668285;85;20959;-66
2022/11/11 05:22:39;;;;;;;4.35;1.82;;;;;;;10.56;96.80;100316.64;1678902;84;20955;-65
2022/11/11 05:25:25;;;;;;;7.25;2.30;;;;;;;10.58;96.78;100314.84;1650956;85;20888;-65
2022/11/11 05:27:53;;;;;;;4.60;1.60;;;;;;;10.61;96.73;100314.72;1670328;85;21135;-65
2022/11/11 05:30:20;;;;;;;;;;;;;;;10.63;96.60;100315.52;1683576;84;21005;-65
2022/11/11 05:32:47;;;;;;;7.65;2.42;;;;;;;10.66;96.48;100314.09;1676760;84;20075;-66
2022/11/11 05:35:14;;;;;;;11.17;2.47;;;;;;;10.68;96.50;100316.20;1679942;85;21509;-65
2022/11/11 05:37:41;;;;;;;7.28;2.10;;;;;;;10.68;96.35;100316.20;1679099;84;20931;-65
2022/11/11 05:40:11;;;;;;;6.87;1.47;;;;;;;10.67;96.39;100306.22;1680316;85;22051;-65
2022/11/11 05:42:42;;;;;;;4.40;1.50;;;;;;;10.68;96.37;100313.59;1679618;85;20891;-66
2022/11/11 05:45:09;;;;;;;6.87;1.72;;;;;;;10.69;96.44;100311.36;1675257;84;20931;-66
2022/11/11 05:47:36;;;;;;;5.37;1.70;;;;;;;10.74;96.37;100310.73;1653557;85;20975;-65
2022/11/11 05:50:03;;;;;;;7.87;2.63;;;;;;;10.75;96.08;100313.30;1654536;85;21016;-65
2022/11/11 05:52:30;;;;;;;6.45;1.57;;;;;;;10.69;96.12;100295.23;1679092;84;21050;-65
2022/11/11 05:54:57;;;;;;;6.90;2.27;;;;;;;10.74;95.99;100301.13;1667977;84;21083;-65
2022/11/11 05:57:24;;;;;;;4.72;2.00;;;;;;;10.75;95.94;100298.06;1652181;85;21031;-66
2022/11/11 05:59:50;;;;;;;6.85;1.80;;;;;;;10.74;95.94;100311.58;1668666;84;20884;-65
2022/11/11 06:02:17;;;;;;;4.58;1.65;;;;;;;10.75;95.90;100305.47;1696347;83;21002;-66
2022/11/11 06:04:44;;;;;;;7.03;1.87;;;;;;;10.74;95.84;100319.88;1675240;83;21832;-66
2022/11/11 06:07:11;;;;;;;6.43;1.70;;;;;;;10.75;95.92;100322.45;1684678;84;21520;-66
2022/11/11 06:09:38;;;;;;;3.83;1.75;;;;;;;10.68;95.97;100305.30;1673783;84;20946;-66
2022/11/11 06:12:04;;;;;;;7.47;2.07;;;;;;;10.68;95.97;100305.30;1691360;84;20969;-65
2022/11/11 06:14:31;;;;;;;4.70;1.77;;;;;;;10.75;95.71;100317.65;1672094;83;21257;-65
2022/11/11 06:16:58;;;;;;;5.97;2.63;;;;;;;10.76;95.72;100319.38;1671752;84;21175;-65
2022/11/11 06:19:25;;;;;;;6.67;1.80;;;;;;;10.77;95.77;100323.67;1683401;83;20933;-65
2022/11/11 06:21:57;;;;;;;6.83;2.13;;;;;;;10.80;95.72;100334.00;1673900;84;20998;-65
2022/11/11 06:24:24;;;;;;;7.22;1.85;;;;;;;10.79;95.72;100334.92;1672567;83;20918;-65
2022/11/11 06:26:51;;;;;;;7.53;1.87;;;;;;;10.81;95.67;100340.95;1673037;84;20931;-65
2022/11/11 06:29:18;;;;;;;4.28;1.70;;;;;;;10.83;95.67;100343.02;1697312;83;21042;-65
2022/11/11 06:31:45;;;;;;;5.58;1.87;;;;;;;10.84;95.70;100346.05;1671744;84;21472;-65
2022/11/11 06:34:11;;;;;;;6.62;2.27;;;;;;;10.83;95.62;100352.17;1689601;84;20919;-65
2022/11/11 06:36:38;;;;;;;13.67;3.07;;;;;;;10.81;95.49;100347.48;1697342;84;20953;-66
2022/11/11 06:39:05;;;;;;;5.35;2.05;;;;;;;10.80;95.50;100357.52;1686091;83;21733;-65
2022/11/11 06:41:31;;;;;;;5.43;1.73;;;;;;;10.82;95.46;100360.08;1700024;83;20962;-65
2022/11/11 06:44:00;;;;;;;7.75;2.58;;;;;;;10.80;95.41;100362.73;1664974;84;20985;-65
2022/11/11 06:46:27;;;;;;;6.37;2.65;;;;;;;10.77;95.52;100360.24;1665048;84;20961;-65
2022/11/11 06:48:54;;;;;;;7.65;1.90;;;;;;;10.78;95.54;100364.55;1690661;84;20978;-65
2022/11/11 06:51:21;;;;;;;8.93;2.27;;;;;;;10.80;95.59;100365.35;1698665;84;21491;-65
2022/11/11 06:53:48;;;;;;;4.08;1.85;;;;;;;10.81;95.32;100369.69;1690868;84;21868;-65
2022/11/11 06:56:15;;;;;;;8.93;2.22;;;;;;;10.81;95.48;100367.07;1673150;83;20914;-65
2022/11/11 06:58:41;;;;;;;6.67;2.62;;;;;;;10.81;95.43;100374.91;1692863;84;21503;-65
2022/11/11 07:01:09;;;;;;;3.92;1.75;;;;;;;10.82;95.41;100371.84;1654831;84;20957;-65
2022/11/11 07:03:35;;;;;;;6.80;2.42;;;;;;;10.85;95.38;100362.58;1669896;85;21015;-66
2022/11/11 07:06:04;;;;;;;9.55;2.60;;;;;;;10.88;95.34;100373.75;1672874;85;21101;-66
2022/11/11 07:08:32;;;;;;;5.53;1.82;;;;;;;10.91;95.28;100364.48;1651802;85;20950;-65
2022/11/11 07:10:58;;;;;;;;;;;;;;;10.92;95.22;100364.91;1670489;85;21516;-65
2022/11/11 07:13:25;;;;;;;7.57;2.13;;;;;;;10.94;95.23;100364.36;1657094;85;20136;-65
2022/11/11 07:15:52;;;;;;;5.42;1.60;;;;;;;10.96;95.29;100363.86;1668362;85;20994;-65
2022/11/11 07:18:19;;;;;;;6.10;1.85;;;;;;;11.00;95.16;100367.66;1655298;85;21032;-64
2022/11/11 07:20:45;;;;;;;7.70;2.25;;;;;;;11.00;94.98;100370.27;1653358;84;21174;-66
2022/11/11 07:23:12;;;;;;;8.83;3.00;;;;;;;11.02;95.03;100369.77;1667423;85;20986;-66
2022/11/11 07:25:39;;;;;;;4.35;1.70;;;;;;;11.05;94.99;100369.64;1654048;85;20986;-67
2022/11/11 07:28:06;;;;;;;7.87;1.93;;;;;;;10.97;95.12;100379.92;1669987;85;20947;-65
2022/11/11 07:30:33;;;;;;;7.78;2.15;;;;;;;10.97;95.12;100379.92;1655700;85;21280;-65
2022/11/11 07:32:59;;;;;;;12.13;3.07;;;;;;;11.09;95.00;100393.42;1657805;85;21596;-64
2022/11/11 07:35:26;;;;;;;25.00;2.70;;;;;;;11.09;94.95;100398.66;1672697;85;20966;-65
2022/11/11 07:37:52;;;;;;;7.07;2.30;;;;;;;11.08;94.73;100391.73;1658068;85;20967;-65
2022/11/11 07:40:20;;;;;;;5.00;1.60;;;;;;;11.04;94.74;100391.47;1669261;85;21623;-65
2022/11/11 07:42:47;;;;;;;8.43;2.47;;;;;;;11.03;94.52;100401.05;1670070;85;21491;-65
2022/11/11 07:45:14;;;;;;;8.50;2.47;;;;;;;10.97;94.62;100408.66;1643860;86;20949;-65
2022/11/11 07:47:44;;;;;;;8.65;2.42;;;;;;;10.95;94.77;100403.97;1658233;86;21007;-65
2022/11/11 07:50:11;;;;;;;7.30;2.50;;;;;;;10.97;94.70;100396.91;1643106;86;20938;-65
2022/11/11 07:52:38;;;;;;;;;;;;;;;10.87;94.73;100392.95;1677406;85;20940;-65
2022/11/11 07:55:05;;;;;;;7.03;2.35;;;;;;;10.83;94.83;100393.97;1660626;85;21067;-65
2022/11/11 07:57:32;;;;;;;;;;;;;;;10.87;94.58;100403.41;1673877;85;20975;-65
2022/11/11 08:00:00;;;;;;;6.45;1.92;;;;;;;10.84;94.91;100395.69;1663738;85;20132;-64
2022/11/11 08:02:29;;;;;;;10.35;3.37;;;;;;;10.77;95.08;100398.58;1674311;84;20919;-66
2022/11/11 08:04:57;;;;;;;4.17;1.98;;;;;;;10.73;94.95;100409.61;1676451;85;21065;-65
2022/11/11 08:07:24;;;;;;;9.73;2.45;;;;;;;10.71;94.97;100418.79;1679764;85;21075;-66
2022/11/11 08:09:53;;;;;;;6.42;2.20;;;;;;;10.73;95.02;100409.61;1635096;86;20964;-66
2022/11/11 08:15:08;;;;;;;6.15;1.85;;;;;;;10.74;94.96;100418.67;1679043;85;20935;-66
2022/11/11 08:17:38;;;;;;;4.97;1.85;;;;;;;10.75;94.95;100416.91;1645306;86;21020;-66
2022/11/11 08:20:08;;;;;;;6.40;2.15;;;;;;;10.77;94.90;100416.41;1661798;85;21134;-66
2022/11/11 08:22:37;;;;;;;8.25;2.42;;;;;;;10.75;94.89;100405.16;1675442;85;21516;-66
2022/11/11 08:25:06;;;;;;;6.03;2.08;;;;;;;10.75;94.89;100405.16;1655184;85;20944;-66
2022/11/11 08:27:34;;;;;;;7.75;2.35;;;;;;;10.78;94.45;100402.42;1664217;85;20885;-66
2022/11/11 08:30:01;;;;;;;5.00;2.52;;;;;;;10.82;94.38;100404.03;1677805;85;21013;-66
2022/11/11 08:32:27;;;;;;;9.80;2.93;;;;;;;10.72;94.81;100398.73;1659306;85;21850;-67
2022/11/11 08:34:54;;;;;;;6.58;2.20;;;;;;;10.68;94.90;100408.91;1654626;85;20970;-67
2022/11/11 08:37:21;;;;;;;6.97;1.98;;;;;;;10.69;94.64;100398.86;1665120;85;20904;-67
2022/11/11 08:39:51;;;;;;;8.55;2.58;;;;;;;10.61;94.96;100404.35;1686920;84;21525;-66
2022/11/11 08:42:18;;;;;;;7.20;2.15;;;;;;;10.59;95.01;100403.58;1682483;84;20959;-64
2022/11/11 08:44:45;;;;;;;7.87;2.45;;;;;;;10.59;95.00;100406.19;1681801;84;21222;-65
2022/11/11 08:47:14;;;;;;;7.92;3.37;;;;;;;10.59;95.08;100415.79;1682012;83;20977;-66
2022/11/11 08:49:42;;;;;;;9.88;2.50;;;;;;;10.53;94.92;100420.32;1651451;86;20960;-66
2022/11/11 08:52:11;;;;;;;7.30;2.27;;;;;;;10.56;95.24;100428.92;1664135;85;20939;-66
2022/11/11 08:54:38;;;;;;;5.83;2.40;;;;;;;10.64;95.26;100432.12;1678637;83;20987;-67
2022/11/11 08:57:04;;;;;;;11.22;2.83;;;;;;;10.67;95.22;100433.31;1653951;85;21021;-66
2022/11/11 08:59:32;;;;;;;9.95;2.50;;;;;;;10.70;95.15;100429.31;1668381;85;20991;-66
2022/11/11 09:01:59;;;;;;;6.30;2.20;;;;;;;10.74;94.90;100427.81;1671375;84;20975;-67
2022/11/11 09:04:26;;;;;;;8.98;2.40;;;;;;;10.74;94.82;100426.51;1666995;84;21492;-67
2022/11/11 09:06:53;;;;;;;8.58;3.45;;;;;;;10.73;94.82;100410.91;1690295;83;20956;-67
2022/11/11 09:09:20;;;;;;;5.20;2.37;;;;;;;10.79;94.80;100418.52;1697105;83;21038;-65
2022/11/11 09:11:47;;;;;;;5.25;2.17;;;;;;;10.83;94.90;100420.09;1676371;83;21064;-65
2022/11/11 09:14:16;;;;;;;10.15;2.75;;;;;;;10.86;94.86;100412.13;1698356;84;21499;-64
2022/11/11 09:16:45;;;;;;;7.55;2.27;;;;;;;10.91;94.95;100407.59;1691018;83;21492;-65
2022/11/11 09:19:12;;;;;;;9.48;2.92;;;;;;;10.95;94.91;100416.16;1696872;83;21412;-65
2022/11/11 09:21:39;;;;;;;8.50;2.33;;;;;;;10.96;94.92;100410.89;1698233;84;21042;-66
2022/11/11 09:24:06;;;;;;;6.12;2.55;;;;;;;11.01;94.93;100412.46;1694253;83;20938;-65
2022/11/11 09:26:33;;;;;;;6.62;2.33;;;;;;;11.04;94.90;100414.98;1697063;84;20918;-65
2022/11/11 09:28:59;;;;;;;6.58;2.05;;;;;;;11.04;94.99;100405.84;1699041;83;20926;-65
2022/11/11 09:31:26;;;;;;;7.42;2.75;;;;;;;11.05;95.07;100408.84;1697200;83;21506;-66
2022/11/11 09:33:53;;;;;;;5.37;2.35;;;;;;;11.11;94.83;100413.83;1695594;84;21054;-65
2022/11/11 09:36:20;;;;;;;9.98;2.40;;;;;;;11.14;94.69;100418.94;1696151;84;20962;-65
2022/11/11 09:38:47;;;;;;;6.33;2.25;;;;;;;11.15;94.71;100429.34;1696319;84;22061;-65
2022/11/11 09:41:54;;;;;;;6.97;3.12;;;;;;;11.18;94.65;100438.83;1691464;83;20981;-65
2022/11/11 09:44:38;;;;;;;8.63;2.72;;;;;;;11.19;94.67;100437.91;1696609;83;20942;-65
2022/11/11 09:47:43;;;;;;;6.35;2.17;;;;;;;11.23;94.71;100439.52;1697136;83;21059;-65
2022/11/11 09:50:13;;;;;;;10.40;2.90;;;;;;;11.25;94.67;100437.67;1697808;84;20910;-65
2022/11/11 09:52:48;;;;;;;6.85;2.60;;;;;;;11.20;94.61;100433.06;1696175;83;20966;-66
2022/11/11 09:55:29;;;;;;;8.13;3.05;;;;;;;11.17;94.75;100447.56;1694129;83;20986;-65
2022/11/11 09:58:05;;;;;;;6.62;2.47;;;;;;;11.22;94.72;100450.02;1670513;84;21040;-65
2022/11/11 10:00:37;;;;;;;5.67;1.98;;;;;;;11.21;94.82;100449.16;1667767;83;21258;-66
2022/11/11 10:03:14;;;;;;;7.55;2.25;;;;;;;11.27;94.76;100442.85;1691354;83;20959;-64
2022/11/11 10:05:55;;;;;;;5.95;2.67;;;;;;;11.30;94.61;100443.58;1692997;83;21477;-66
2022/11/11 10:08:39;;;;;;;6.50;2.67;;;;;;;11.26;94.25;100425.44;1692782;84;20958;-66
2022/11/11 10:11:16;;;;;;;6.60;2.25;;;;;;;11.26;94.25;100425.44;1684161;83;21065;-67
2022/11/11 10:13:44;;;;;;;10.95;2.50;;;;;;;11.38;94.56;100445.90;1693279;84;21743;-65
2022/11/11 10:16:48;;;;;;;7.42;2.70;;;;;;;11.42;94.57;100439.63;1671528;84;20912;-65
2022/11/11 10:19:40;;;;;;;7.87;2.40;;;;;;;11.33;94.19;100419.92;1684767;84;20922;-66
2022/11/11 10:22:18;;;;;;;5.58;2.05;;;;;;;11.33;94.19;100419.92;1689024;83;21034;-66
2022/11/11 10:25:00;;;;;;;8.75;2.62;;;;;;;11.47;94.23;100429.00;1692635;83;20989;-65
2022/11/11 10:27:28;;;;;;;6.75;2.65;;;;;;;11.47;94.29;100428.53;1675647;83;21476;-66
2022/11/11 10:29:56;;;;;;;10.65;2.75;;;;;;;11.46;94.02;100420.77;1693555;84;21012;-66
2022/11/11 10:32:27;;;;;;;;;;;;;;;11.47;94.04;100429.00;1674367;84;20920;-65
2022/11/11 10:35:03;;;;;;;7.10;2.77;;;;;;;11.43;94.26;100430.89;1670275;83;20597;-65
2022/11/11 10:37:42;;;;;;;7.95;2.98;;;;;;;11.48;94.22;100428.07;1670701;84;21011;-65
2022/11/11 10:40:29;;;;;;;8.35;3.20;;;;;;;11.49;94.11;100427.18;1684613;83;20977;-65
2022/11/11 10:42:56;;;;;;;9.13;3.92;;;;;;;11.50;94.26;100429.72;1692574;84;20970;-65
2022/11/11 10:45:33;;;;;;;;;;;;;;;11.55;94.26;100432.16;1675257;84;21483;-65
2022/11/11 10:48:11;;;;;;;8.75;3.00;;;;;;;11.58;94.09;100432.03;1682436;83;20126;-64
2022/11/11 10:50:56;;;;;;;8.28;3.30;;;;;;;11.61;94.01;100437.14;1676531;84;21100;-65
2022/11/11 10:53:39;;;;;;;7.92;3.35;;;;;;;11.65;93.98;100436.13;1696935;83;20995;-65
2022/11/11 10:56:35;;;;;;;12.58;3.52;;;;;;;11.62;93.75;100407.44;1672606;84;21553;-65
2022/11/11 10:59:22;;;;;;;9.13;3.58;;;;;;;11.62;93.75;100407.44;1667793;85;20952;-65
2022/11/11 11:02:23;;;;;;;7.83;3.20;;;;;;;11.71;93.74;100428.02;1660637;84;21481;-65
2022/11/11 11:05:01;;;;;;;9.60;3.70;;;;;;;11.77;93.65;100450.46;1672989;85;21024;-65
2022/11/11 11:07:39;;;;;;;9.25;2.90;;;;;;;11.65;93.58;100429.12;1655493;85;21101;-65
2022/11/11 11:10:14;;;;;;;8.90;4.50;;;;;;;11.72;93.85;100453.25;1654645;85;20935;-66
2022/11/11 11:12:51;;;;;;;10.05;3.67;;;;;;;11.74;93.85;100452.74;1673413;85;20913;-63
2022/11/11 11:15:22;;;;;;;7.87;3.10;;;;;;;11.80;93.76;100449.88;1646159;86;21893;-64
2022/11/11 11:18:06;;;;;;;10.85;3.62;;;;;;;11.82;93.53;100449.36;1647065;86;20930;-64
2022/11/11 11:20:33;;;;;;;6.37;3.12;;;;;;;11.81;93.54;100456.80;1677924;85;21053;-64
2022/11/11 11:23:00;;;;;;;8.25;3.70;;;;;;;11.74;93.38;100433.13;1662417;85;21013;-65
2022/11/11 11:25:34;;;;;;;9.88;3.60;;;;;;;11.84;93.31;100470.22;1677875;85;21070;-64
2022/11/11 11:28:11;;;;;;;8.00;3.00;;;;;;;11.73;93.30;100441.86;1616390;86;20962;-65
2022/11/11 11:30:38;;;;;;;9.83;3.60;;;;;;;11.81;93.23;100455.48;1676169;85;21545;-64
2022/11/11 11:33:07;;;;;;;12.37;3.75;;;;;;;11.80;93.18;100464.27;1662934;84;21121;-64
2022/11/11 11:35:45;;;;;;;9.48;3.20;;;;;;;11.78;93.18;100464.77;1662864;84;20971;-65
2022/11/11 11:38:12;;;;;;;7.42;3.35;;;;;;;11.78;93.08;100446.45;1673265;84;20971;-65
2022/11/11 11:40:56;;;;;;;12.47;3.45;;;;;;;11.78;93.15;100451.69;1662735;85;21007;-65
2022/11/11 11:43:44;;;;;;;9.63;4.10;;;;;;;11.80;93.10;100454.26;1676982;85;20978;-64
2022/11/11 11:46:40;;;;;;;6.20;3.12;;;;;;;11.77;92.89;100459.16;1675489;84;21897;-65
2022/11/11 11:49:28;;;;;;;6.03;2.83;;;;;;;11.77;92.89;100459.16;1563558;90;21029;-65
2022/11/11 11:52:15;;;;;;;8.03;2.90;;;;;;;11.63;93.09;100435.32;1563811;90;20984;-65
2022/11/11 11:55:03;;;;;;;9.28;3.98;;;;;;;11.63;93.09;100435.32;1577592;89;21031;-64
2022/11/11 11:57:46;;;;;;;8.68;3.05;;;;;;;11.70;92.92;100458.15;1580526;89;20991;-65
2022/11/11 12:00:30;;;;;;;8.40;3.02;;;;;;;11.70;92.92;100458.15;1547740;91;21129;-65
2022/11/11 12:03:28;;;;;;;9.38;3.92;;;;;;;11.53;92.68;100447.05;1572937;90;21048;-65
2022/11/11 12:06:15;;;;;;;10.58;3.65;;;;;;;11.53;92.68;100447.05;1571071;89;20922;-64
2022/11/11 12:09:15;;;;;;;6.80;3.52;;;;;;;11.63;92.65;100466.71;1571426;89;20986;-65
2022/11/11 12:12:04;;;;;;;10.85;3.45;;;;;;;11.62;92.72;100451.91;1574465;89;21035;-64
2022/11/11 12:15:03;;;;;;;7.75;3.45;;;;;;;11.59;92.60;100452.88;1571283;90;21131;-65
2022/11/11 12:18:02;;;;;;;7.30;3.25;;;;;;;11.56;92.63;100454.77;1540202;91;21176;-65
2022/11/11 12:20:40;;;;;;;8.00;3.30;;;;;;;11.56;92.67;100456.08;1545277;91;21033;-65
2022/11/11 12:23:33;;;;;;;11.18;3.72;;;;;;;11.53;92.53;100453.13;1584637;85;20991;-66
2022/11/11 12:26:11;;;;;;;9.15;3.55;;;;;;;11.51;92.56;100464.56;1639272;85;21016;-65
2022/11/11 12:28:49;;;;;;;9.73;3.45;;;;;;;11.43;92.55;100447.42;1655144;84;21691;-65
2022/11/11 12:31:56;;;;;;;9.98;3.60;;;;;;;11.56;92.34;100462.62;1657274;85;20930;-65
2022/11/11 12:34:36;;;;;;;9.50;3.95;;;;;;;11.56;92.34;100462.62;1656282;85;26602;-65
2022/11/11 12:37:21;;;;;;;7.42;3.00;;;;;;;11.56;92.22;100463.92;1652961;85;20921;-65
2022/11/11 12:40:42;;;;;;;11.60;4.40;;;;;;;11.38;92.24;100441.52;1665697;85;21517;-65
2022/11/11 12:43:26;;;;;;;10.18;4.50;;;;;;;11.55;92.41;100471.39;1658578;86;21089;-65
2022/11/11 12:46:20;;;;;;;10.90;3.72;;;;;;;11.50;92.10;100460.25;1638846;85;20971;-65
2022/11/11 12:49:14;;;;;;;8.58;3.37;;;;;;;11.50;92.10;100460.25;1635365;86;21002;-65
2022/11/11 12:52:20;;;;;;;8.33;4.10;;;;;;;11.45;92.25;100459.58;1665800;85;21793;-65
2022/11/11 12:55:10;;;;;;;8.65;3.22;;;;;;;11.48;92.22;100459.45;1638739;85;21007;-65
2022/11/11 12:58:25;;;;;;;10.55;3.90;;;;;;;11.36;92.10;100450.33;1637060;86;21768;-66